sensor_id;sensor_type;location;lat;lon;timestamp;temperature;humidity
19172;DHT22;9718;52.200;21.052;2023-01-13T00:01:15;6.70;99.90
19172;DHT22;9718;52.200;21.052;2023-01-13T00:03:43;6.70;99.90
19172;DHT22;9718;52.200;21.052;2023-01-13T00:06:12;6.70;99.90
19172;DHT22;9718;52.200;21.052;2023-01-13T00:08:40;6.70;99.90
19172;DHT22;9718;52.200;21.052;2023-01-13T00:11:08;6.60;99.90
19172;DHT22;9718;52.200;21.052;2023-01-13T00:13:36;6.70;99.90
19172;DHT22;9718;52.200;21.052;2023-01-13T00:16:06;6.70;99.90
19172;DHT22;9718;52.200;21.052;2023-01-13T00:18:33;6.60;99.90
19172;DHT22;9718;52.200;21.052;2023-01-13T00:23:38;6.60;99.90
19172;DHT22;9718;52.200;21.052;2023-01-13T00:26:09;6.60;99.90
19172;DHT22;9718;52.200;21.052;2023-01-13T00:28:36;6.70;99.90
19172;DHT22;9718;52.200;21.052;2023-01-13T00:31:09;6.70;99.90
19172;DHT22;9718;52.200;21.052;2023-01-13T00:33:36;6.60;99.90
19172;DHT22;9718;52.200;21.052;2023-01-13T00:36:05;6.70;99.90
19172;DHT22;9718;52.200;21.052;2023-01-13T00:38:35;6.70;99.90
19172;DHT22;9718;52.200;21.052;2023-01-13T00:41:05;6.60;99.90
19172;DHT22;9718;52.200;21.052;2023-01-13T00:43:34;6.50;99.90
19172;DHT22;9718;52.200;21.052;2023-01-13T00:46:03;6.50;99.90
19172;DHT22;9718;52.200;21.052;2023-01-13T00:48:31;6.60;99.90
19172;DHT22;9718;52.200;21.052;2023-01-13T00:51:01;6.50;99.90
19172;DHT22;9718;52.200;21.052;2023-01-13T00:53:32;6.60;99.90
19172;DHT22;9718;52.200;21.052;2023-01-13T00:58:37;6.50;99.90
19172;DHT22;9718;52.200;21.052;2023-01-13T01:01:06;6.60;99.90
19172;DHT22;9718;52.200;21.052;2023-01-13T01:03:34;6.60;99.90
19172;DHT22;9718;52.200;21.052;2023-01-13T01:06:07;6.60;99.90
19172;DHT22;9718;52.200;21.052;2023-01-13T01:08:36;6.60;99.90
19172;DHT22;9718;52.200;21.052;2023-01-13T01:11:08;6.60;99.90
19172;DHT22;9718;52.200;21.052;2023-01-13T01:13:36;6.60;99.90
19172;DHT22;9718;52.200;21.052;2023-01-13T01:16:08;6.70;99.90
19172;DHT22;9718;52.200;21.052;2023-01-13T01:18:37;6.60;99.90
19172;DHT22;9718;52.200;21.052;2023-01-13T01:21:06;6.70;99.90
19172;DHT22;9718;52.200;21.052;2023-01-13T01:23:34;6.70;99.90
19172;DHT22;9718;52.200;21.052;2023-01-13T01:26:13;6.70;99.90
19172;DHT22;9718;52.200;21.052;2023-01-13T01:28:40;6.60;99.90
19172;DHT22;9718;52.200;21.052;2023-01-13T01:31:32;6.60;99.90
19172;DHT22;9718;52.200;21.052;2023-01-13T01:34:00;6.60;99.90
19172;DHT22;9718;52.200;21.052;2023-01-13T01:36:27;6.70;99.90
19172;DHT22;9718;52.200;21.052;2023-01-13T01:38:57;6.70;99.90
19172;DHT22;9718;52.200;21.052;2023-01-13T01:41:28;6.60;99.90
19172;DHT22;9718;52.200;21.052;2023-01-13T01:46:53;6.60;99.90
19172;DHT22;9718;52.200;21.052;2023-01-13T01:49:31;6.60;99.90
19172;DHT22;9718;52.200;21.052;2023-01-13T01:57:00;6.40;99.90
19172;DHT22;9718;52.200;21.052;2023-01-13T01:59:28;6.40;99.90
19172;DHT22;9718;52.200;21.052;2023-01-13T02:01:57;6.40;99.90
19172;DHT22;9718;52.200;21.052;2023-01-13T02:04:32;6.40;99.90
19172;DHT22;9718;52.200;21.052;2023-01-13T02:07:01;6.30;99.90
19172;DHT22;9718;52.200;21.052;2023-01-13T02:09:29;6.40;99.90
19172;DHT22;9718;52.200;21.052;2023-01-13T02:11:56;6.40;99.90
19172;DHT22;9718;52.200;21.052;2023-01-13T02:14:42;6.40;99.90
19172;DHT22;9718;52.200;21.052;2023-01-13T02:32:31;6.50;99.90
19172;DHT22;9718;52.200;21.052;2023-01-13T02:35:26;6.50;99.90
19172;DHT22;9718;52.200;21.052;2023-01-13T02:37:56;6.60;99.90
19172;DHT22;9718;52.200;21.052;2023-01-13T02:43:18;6.50;99.90
19172;DHT22;9718;52.200;21.052;2023-01-13T02:46:12;6.50;99.90
19172;DHT22;9718;52.200;21.052;2023-01-13T02:48:43;6.50;99.90
19172;DHT22;9718;52.200;21.052;2023-01-13T02:51:15;6.50;99.90
19172;DHT22;9718;52.200;21.052;2023-01-13T02:53:52;6.50;99.90
19172;DHT22;9718;52.200;21.052;2023-01-13T02:56:22;6.50;99.90
19172;DHT22;9718;52.200;21.052;2023-01-13T02:58:50;6.50;99.90
19172;DHT22;9718;52.200;21.052;2023-01-13T03:01:19;6.50;99.90
19172;DHT22;9718;52.200;21.052;2023-01-13T03:03:46;6.50;99.90
19172;DHT22;9718;52.200;21.052;2023-01-13T03:06:30;6.50;99.90
19172;DHT22;9718;52.200;21.052;2023-01-13T03:17:20;6.50;99.90
19172;DHT22;9718;52.200;21.052;2023-01-13T03:19:59;6.40;99.90
19172;DHT22;9718;52.200;21.052;2023-01-13T03:23:16;6.40;99.90
19172;DHT22;9718;52.200;21.052;2023-01-13T03:26:10;6.50;99.90
19172;DHT22;9718;52.200;21.052;2023-01-13T03:28:43;6.50;99.90
19172;DHT22;9718;52.200;21.052;2023-01-13T03:31:16;6.60;99.90
19172;DHT22;9718;52.200;21.052;2023-01-13T03:34:06;6.50;99.90
19172;DHT22;9718;52.200;21.052;2023-01-13T03:36:36;6.50;99.90
19172;DHT22;9718;52.200;21.052;2023-01-13T03:39:15;6.50;99.90
19172;DHT22;9718;52.200;21.052;2023-01-13T03:41:49;6.50;99.90
19172;DHT22;9718;52.200;21.052;2023-01-13T03:49:50;6.50;99.90
19172;DHT22;9718;52.200;21.052;2023-01-13T03:52:35;6.50;99.90
19172;DHT22;9718;52.200;21.052;2023-01-13T03:55:20;6.40;99.90
19172;DHT22;9718;52.200;21.052;2023-01-13T03:58:20;6.40;99.90
19172;DHT22;9718;52.200;21.052;2023-01-13T04:03:35;6.40;99.90
19172;DHT22;9718;52.200;21.052;2023-01-13T04:06:14;6.40;99.90
19172;DHT22;9718;52.200;21.052;2023-01-13T04:08:55;6.30;99.90
19172;DHT22;9718;52.200;21.052;2023-01-13T04:11:43;6.30;99.90
19172;DHT22;9718;52.200;21.052;2023-01-13T04:14:11;6.20;99.90
19172;DHT22;9718;52.200;21.052;2023-01-13T04:16:40;6.20;99.90
19172;DHT22;9718;52.200;21.052;2023-01-13T04:19:07;6.20;99.90
19172;DHT22;9718;52.200;21.052;2023-01-13T04:21:34;6.20;99.90
19172;DHT22;9718;52.200;21.052;2023-01-13T04:24:01;6.30;99.90
19172;DHT22;9718;52.200;21.052;2023-01-13T04:26:28;6.30;99.90
19172;DHT22;9718;52.200;21.052;2023-01-13T04:28:55;6.30;99.90
19172;DHT22;9718;52.200;21.052;2023-01-13T04:31:23;6.30;99.90
19172;DHT22;9718;52.200;21.052;2023-01-13T04:33:50;6.40;99.90
19172;DHT22;9718;52.200;21.052;2023-01-13T04:36:17;6.40;99.90
19172;DHT22;9718;52.200;21.052;2023-01-13T04:38:45;6.40;99.90
19172;DHT22;9718;52.200;21.052;2023-01-13T04:41:12;6.40;99.90
19172;DHT22;9718;52.200;21.052;2023-01-13T04:43:39;6.40;99.90
19172;DHT22;9718;52.200;21.052;2023-01-13T04:46:06;6.40;99.90
19172;DHT22;9718;52.200;21.052;2023-01-13T04:48:33;6.40;99.90
19172;DHT22;9718;52.200;21.052;2023-01-13T04:51:01;6.30;99.90
19172;DHT22;9718;52.200;21.052;2023-01-13T04:53:28;6.30;99.90
19172;DHT22;9718;52.200;21.052;2023-01-13T04:55:55;6.30;99.90
19172;DHT22;9718;52.200;21.052;2023-01-13T04:58:22;6.30;99.90
19172;DHT22;9718;52.200;21.052;2023-01-13T05:00:49;6.30;99.90
19172;DHT22;9718;52.200;21.052;2023-01-13T05:03:17;6.30;99.90
19172;DHT22;9718;52.200;21.052;2023-01-13T05:05:44;6.30;99.90
19172;DHT22;9718;52.200;21.052;2023-01-13T05:08:11;6.30;99.90
19172;DHT22;9718;52.200;21.052;2023-01-13T05:10:39;6.40;99.90
19172;DHT22;9718;52.200;21.052;2023-01-13T05:13:07;6.30;99.90
19172;DHT22;9718;52.200;21.052;2023-01-13T05:15:53;6.30;99.90
19172;DHT22;9718;52.200;21.052;2023-01-13T05:18:49;6.40;99.90
19172;DHT22;9718;52.200;21.052;2023-01-13T05:21:17;6.40;99.90
19172;DHT22;9718;52.200;21.052;2023-01-13T05:24:02;6.40;99.90
19172;DHT22;9718;52.200;21.052;2023-01-13T05:26:48;6.50;99.90
19172;DHT22;9718;52.200;21.052;2023-01-13T05:29:15;6.40;99.90
19172;DHT22;9718;52.200;21.052;2023-01-13T05:31:42;6.40;99.90
19172;DHT22;9718;52.200;21.052;2023-01-13T05:34:09;6.40;99.90
19172;DHT22;9718;52.200;21.052;2023-01-13T05:36:37;6.30;99.90
19172;DHT22;9718;52.200;21.052;2023-01-13T05:39:04;6.30;99.90
19172;DHT22;9718;52.200;21.052;2023-01-13T05:41:31;6.40;99.90
19172;DHT22;9718;52.200;21.052;2023-01-13T05:44:16;6.40;99.90
19172;DHT22;9718;52.200;21.052;2023-01-13T05:46:44;6.30;99.90
19172;DHT22;9718;52.200;21.052;2023-01-13T05:49:11;6.30;99.90
19172;DHT22;9718;52.200;21.052;2023-01-13T05:51:38;6.30;99.90
19172;DHT22;9718;52.200;21.052;2023-01-13T05:54:05;6.30;99.90
19172;DHT22;9718;52.200;21.052;2023-01-13T05:56:32;6.20;99.90
19172;DHT22;9718;52.200;21.052;2023-01-13T05:58:59;6.20;99.90
19172;DHT22;9718;52.200;21.052;2023-01-13T06:01:27;6.10;99.90
19172;DHT22;9718;52.200;21.052;2023-01-13T06:03:54;6.10;99.90
19172;DHT22;9718;52.200;21.052;2023-01-13T06:06:21;6.10;99.90
19172;DHT22;9718;52.200;21.052;2023-01-13T06:08:48;6.10;99.90
19172;DHT22;9718;52.200;21.052;2023-01-13T06:11:15;6.10;99.90
19172;DHT22;9718;52.200;21.052;2023-01-13T06:13:42;6.10;99.90
19172;DHT22;9718;52.200;21.052;2023-01-13T06:16:09;6.10;99.90
19172;DHT22;9718;52.200;21.052;2023-01-13T06:18:37;6.10;99.90
19172;DHT22;9718;52.200;21.052;2023-01-13T06:21:04;6.10;99.90
19172;DHT22;9718;52.200;21.052;2023-01-13T06:23:31;6.10;99.90
19172;DHT22;9718;52.200;21.052;2023-01-13T06:28:32;6.20;99.90
19172;DHT22;9718;52.200;21.052;2023-01-13T06:31:03;6.20;99.90
19172;DHT22;9718;52.200;21.052;2023-01-13T06:33:39;6.20;99.90
19172;DHT22;9718;52.200;21.052;2023-01-13T06:36:13;6.20;99.90
19172;DHT22;9718;52.200;21.052;2023-01-13T06:38:44;6.20;99.90
19172;DHT22;9718;52.200;21.052;2023-01-13T06:41:12;6.30;99.90
19172;DHT22;9718;52.200;21.052;2023-01-13T06:43:39;6.30;99.90
19172;DHT22;9718;52.200;21.052;2023-01-13T06:46:07;6.30;99.90
19172;DHT22;9718;52.200;21.052;2023-01-13T06:48:34;6.30;99.90
19172;DHT22;9718;52.200;21.052;2023-01-13T06:51:03;6.30;99.90
19172;DHT22;9718;52.200;21.052;2023-01-13T06:53:30;6.40;99.90
19172;DHT22;9718;52.200;21.052;2023-01-13T06:55:58;6.40;99.90
19172;DHT22;9718;52.200;21.052;2023-01-13T06:58:25;6.40;99.90
19172;DHT22;9718;52.200;21.052;2023-01-13T07:00:52;6.40;99.90
19172;DHT22;9718;52.200;21.052;2023-01-13T07:03:19;6.40;99.90
19172;DHT22;9718;52.200;21.052;2023-01-13T07:05:52;6.40;99.90
19172;DHT22;9718;52.200;21.052;2023-01-13T07:08:20;6.40;99.90
19172;DHT22;9718;52.200;21.052;2023-01-13T07:10:47;6.40;99.90
19172;DHT22;9718;52.200;21.052;2023-01-13T07:13:14;6.40;99.90
19172;DHT22;9718;52.200;21.052;2023-01-13T07:16:02;6.50;99.90
19172;DHT22;9718;52.200;21.052;2023-01-13T07:18:31;6.50;99.90
19172;DHT22;9718;52.200;21.052;2023-01-13T07:23:28;6.50;99.90
19172;DHT22;9718;52.200;21.052;2023-01-13T07:25:57;6.60;99.90
19172;DHT22;9718;52.200;21.052;2023-01-13T07:28:25;6.50;99.90
19172;DHT22;9718;52.200;21.052;2023-01-13T07:30:53;6.60;99.90
19172;DHT22;9718;52.200;21.052;2023-01-13T07:33:20;6.60;99.90
19172;DHT22;9718;52.200;21.052;2023-01-13T07:36:01;6.60;99.90
19172;DHT22;9718;52.200;21.052;2023-01-13T07:38:29;6.60;99.90
19172;DHT22;9718;52.200;21.052;2023-01-13T07:40:57;6.60;99.90
19172;DHT22;9718;52.200;21.052;2023-01-13T07:43:24;6.60;99.90
19172;DHT22;9718;52.200;21.052;2023-01-13T07:46:03;6.60;99.90
19172;DHT22;9718;52.200;21.052;2023-01-13T07:48:32;6.60;99.90
19172;DHT22;9718;52.200;21.052;2023-01-13T07:51:05;6.60;99.90
19172;DHT22;9718;52.200;21.052;2023-01-13T07:53:32;6.60;99.90
19172;DHT22;9718;52.200;21.052;2023-01-13T07:56:00;6.60;99.90
19172;DHT22;9718;52.200;21.052;2023-01-13T07:58:28;6.60;99.90
19172;DHT22;9718;52.200;21.052;2023-01-13T08:00:55;6.70;99.90
19172;DHT22;9718;52.200;21.052;2023-01-13T08:03:23;6.70;99.90
19172;DHT22;9718;52.200;21.052;2023-01-13T08:05:51;6.70;99.90
19172;DHT22;9718;52.200;21.052;2023-01-13T08:08:18;6.70;99.90
19172;DHT22;9718;52.200;21.052;2023-01-13T08:10:45;6.70;99.90
19172;DHT22;9718;52.200;21.052;2023-01-13T08:13:17;6.70;99.90
19172;DHT22;9718;52.200;21.052;2023-01-13T08:15:49;6.70;99.90
19172;DHT22;9718;52.200;21.052;2023-01-13T08:18:18;6.70;99.90
19172;DHT22;9718;52.200;21.052;2023-01-13T08:20:48;6.80;99.90
19172;DHT22;9718;52.200;21.052;2023-01-13T08:23:19;6.80;99.90
19172;DHT22;9718;52.200;21.052;2023-01-13T08:25:47;6.80;99.90
19172;DHT22;9718;52.200;21.052;2023-01-13T08:28:15;6.80;99.90
19172;DHT22;9718;52.200;21.052;2023-01-13T08:30:42;6.90;99.90
19172;DHT22;9718;52.200;21.052;2023-01-13T08:33:11;6.90;99.90
19172;DHT22;9718;52.200;21.052;2023-01-13T08:35:40;7.00;99.90
19172;DHT22;9718;52.200;21.052;2023-01-13T08:38:07;7.00;99.90
19172;DHT22;9718;52.200;21.052;2023-01-13T08:40:35;7.00;99.90
19172;DHT22;9718;52.200;21.052;2023-01-13T08:43:04;7.00;99.90
19172;DHT22;9718;52.200;21.052;2023-01-13T08:45:31;7.00;99.90
19172;DHT22;9718;52.200;21.052;2023-01-13T08:47:58;7.10;99.90
19172;DHT22;9718;52.200;21.052;2023-01-13T08:50:26;7.10;99.90
19172;DHT22;9718;52.200;21.052;2023-01-13T08:52:53;7.10;99.90
19172;DHT22;9718;52.200;21.052;2023-01-13T08:55:20;7.10;99.90
19172;DHT22;9718;52.200;21.052;2023-01-13T08:57:48;7.10;99.90
19172;DHT22;9718;52.200;21.052;2023-01-13T09:00:15;7.20;99.90
19172;DHT22;9718;52.200;21.052;2023-01-13T09:02:43;7.20;99.90
19172;DHT22;9718;52.200;21.052;2023-01-13T09:05:10;7.30;99.90
19172;DHT22;9718;52.200;21.052;2023-01-13T09:07:38;7.30;99.90
19172;DHT22;9718;52.200;21.052;2023-01-13T09:10:07;7.30;99.90
19172;DHT22;9718;52.200;21.052;2023-01-13T09:12:34;7.30;99.90
19172;DHT22;9718;52.200;21.052;2023-01-13T09:15:20;7.30;99.90
19172;DHT22;9718;52.200;21.052;2023-01-13T09:17:47;7.40;99.90
19172;DHT22;9718;52.200;21.052;2023-01-13T09:20:15;7.30;99.90
19172;DHT22;9718;52.200;21.052;2023-01-13T09:22:43;7.40;99.90
19172;DHT22;9718;52.200;21.052;2023-01-13T09:25:10;7.40;99.90
19172;DHT22;9718;52.200;21.052;2023-01-13T09:27:38;7.50;99.90
19172;DHT22;9718;52.200;21.052;2023-01-13T09:30:06;7.50;99.90
19172;DHT22;9718;52.200;21.052;2023-01-13T09:32:34;7.50;99.90
19172;DHT22;9718;52.200;21.052;2023-01-13T09:35:01;7.50;99.90
19172;DHT22;9718;52.200;21.052;2023-01-13T09:37:37;7.50;99.90
19172;DHT22;9718;52.200;21.052;2023-01-13T09:40:17;7.50;99.90
19172;DHT22;9718;52.200;21.052;2023-01-13T09:42:59;7.60;99.90
19172;DHT22;9718;52.200;21.052;2023-01-13T09:45:53;7.60;99.90
19172;DHT22;9718;52.200;21.052;2023-01-13T09:48:34;7.70;99.90
19172;DHT22;9718;52.200;21.052;2023-01-13T09:51:26;7.80;99.90
19172;DHT22;9718;52.200;21.052;2023-01-13T09:53:58;7.80;99.90
19172;DHT22;9718;52.200;21.052;2023-01-13T09:56:28;7.80;99.90
19172;DHT22;9718;52.200;21.052;2023-01-13T09:58:54;7.90;99.90
19172;DHT22;9718;52.200;21.052;2023-01-13T10:01:27;7.80;99.90
19172;DHT22;9718;52.200;21.052;2023-01-13T10:04:00;7.90;99.90
19172;DHT22;9718;52.200;21.052;2023-01-13T10:06:36;7.90;99.90
19172;DHT22;9718;52.200;21.052;2023-01-13T10:09:16;8.00;99.90
19172;DHT22;9718;52.200;21.052;2023-01-13T10:11:45;8.00;99.90
19172;DHT22;9718;52.200;21.052;2023-01-13T10:14:48;8.00;99.90
19172;DHT22;9718;52.200;21.052;2023-01-13T10:20:03;8.00;99.90
19172;DHT22;9718;52.200;21.052;2023-01-13T10:28:34;8.10;99.90
19172;DHT22;9718;52.200;21.052;2023-01-13T10:31:09;8.10;99.90
19172;DHT22;9718;52.200;21.052;2023-01-13T10:33:37;8.20;99.90
19172;DHT22;9718;52.200;21.052;2023-01-13T10:36:16;8.20;99.90
19172;DHT22;9718;52.200;21.052;2023-01-13T10:38:49;8.20;99.90
19172;DHT22;9718;52.200;21.052;2023-01-13T10:44:18;8.20;99.90
19172;DHT22;9718;52.200;21.052;2023-01-13T10:46:57;8.20;99.90
19172;DHT22;9718;52.200;21.052;2023-01-13T10:49:34;8.20;99.90
19172;DHT22;9718;52.200;21.052;2023-01-13T10:52:03;8.30;99.90
19172;DHT22;9718;52.200;21.052;2023-01-13T10:54:51;8.30;99.90
19172;DHT22;9718;52.200;21.052;2023-01-13T10:57:21;8.20;99.90
19172;DHT22;9718;52.200;21.052;2023-01-13T10:59:49;8.30;99.90
19172;DHT22;9718;52.200;21.052;2023-01-13T11:02:46;8.30;99.90
19172;DHT22;9718;52.200;21.052;2023-01-13T11:05:33;8.40;99.90
19172;DHT22;9718;52.200;21.052;2023-01-13T11:08:22;8.40;99.90
19172;DHT22;9718;52.200;21.052;2023-01-13T11:10:56;8.40;99.90
19172;DHT22;9718;52.200;21.052;2023-01-13T11:18:56;8.50;99.90
19172;DHT22;9718;52.200;21.052;2023-01-13T11:21:34;8.40;99.90
19172;DHT22;9718;52.200;21.052;2023-01-13T11:24:32;8.50;99.90
19172;DHT22;9718;52.200;21.052;2023-01-13T11:36:00;8.40;99.90
19172;DHT22;9718;52.200;21.052;2023-01-13T11:44:26;8.40;99.90
19172;DHT22;9718;52.200;21.052;2023-01-13T11:46:55;8.50;99.90
19172;DHT22;9718;52.200;21.052;2023-01-13T11:49:32;8.50;99.90
19172;DHT22;9718;52.200;21.052;2023-01-13T11:57:31;8.70;99.90
19172;DHT22;9718;52.200;21.052;2023-01-13T12:02:56;8.80;99.90
19172;DHT22;9718;52.200;21.052;2023-01-13T12:05:39;8.80;99.90
19172;DHT22;9718;52.200;21.052;2023-01-13T12:08:36;8.80;99.90
19172;DHT22;9718;52.200;21.052;2023-01-13T12:14:05;8.70;99.90
19172;DHT22;9718;52.200;21.052;2023-01-13T12:16:44;8.80;99.90
19172;DHT22;9718;52.200;21.052;2023-01-13T12:19:28;8.80;99.90
19172;DHT22;9718;52.200;21.052;2023-01-13T12:22:22;8.80;99.90
19172;DHT22;9718;52.200;21.052;2023-01-13T12:25:03;8.70;99.90
19172;DHT22;9718;52.200;21.052;2023-01-13T12:27:42;8.70;99.90
19172;DHT22;9718;52.200;21.052;2023-01-13T12:33:47;8.70;99.90
19172;DHT22;9718;52.200;21.052;2023-01-13T12:39:40;8.70;99.90
19172;DHT22;9718;52.200;21.052;2023-01-13T12:42:22;8.60;99.90
19172;DHT22;9718;52.200;21.052;2023-01-13T12:47:39;8.70;99.90
19172;DHT22;9718;52.200;21.052;2023-01-13T12:52:51;8.80;99.90
19172;DHT22;9718;52.200;21.052;2023-01-13T12:55:26;8.80;99.90
19172;DHT22;9718;52.200;21.052;2023-01-13T12:58:14;8.80;99.90
19172;DHT22;9718;52.200;21.052;2023-01-13T13:05:48;9.00;99.90
19172;DHT22;9718;52.200;21.052;2023-01-13T13:14:00;9.10;99.90
19172;DHT22;9718;52.200;21.052;2023-01-13T13:22:14;9.10;99.90
19172;DHT22;9718;52.200;21.052;2023-01-13T13:24:43;9.10;99.90
19172;DHT22;9718;52.200;21.052;2023-01-13T13:27:50;9.10;99.90
19172;DHT22;9718;52.200;21.052;2023-01-13T13:41:57;9.00;99.90
19172;DHT22;9718;52.200;21.052;2023-01-13T13:44:47;9.10;99.90
19172;DHT22;9718;52.200;21.052;2023-01-13T13:47:35;9.10;99.90
19172;DHT22;9718;52.200;21.052;2023-01-13T13:50:16;9.00;99.90
19172;DHT22;9718;52.200;21.052;2023-01-13T13:52:49;9.10;99.90
19172;DHT22;9718;52.200;21.052;2023-01-13T13:55:23;9.10;99.90
19172;DHT22;9718;52.200;21.052;2023-01-13T13:57:53;9.10;99.90
19172;DHT22;9718;52.200;21.052;2023-01-13T14:00:27;9.10;99.90
19172;DHT22;9718;52.200;21.052;2023-01-13T14:06:04;9.10;99.90
19172;DHT22;9718;52.200;21.052;2023-01-13T14:08:37;9.10;99.90
19172;DHT22;9718;52.200;21.052;2023-01-13T14:11:27;9.10;99.90
19172;DHT22;9718;52.200;21.052;2023-01-13T14:14:02;9.10;99.90
19172;DHT22;9718;52.200;21.052;2023-01-13T14:16:31;9.10;99.90
19172;DHT22;9718;52.200;21.052;2023-01-13T14:19:00;9.00;99.90
19172;DHT22;9718;52.200;21.052;2023-01-13T14:21:29;8.90;99.90
19172;DHT22;9718;52.200;21.052;2023-01-13T14:23:57;8.90;99.90
19172;DHT22;9718;52.200;21.052;2023-01-13T14:26:28;8.90;99.90
19172;DHT22;9718;52.200;21.052;2023-01-13T14:28:58;8.90;99.90
19172;DHT22;9718;52.200;21.052;2023-01-13T14:31:27;8.90;99.90
19172;DHT22;9718;52.200;21.052;2023-01-13T14:33:56;8.90;99.90
19172;DHT22;9718;52.200;21.052;2023-01-13T14:36:34;9.00;99.90
19172;DHT22;9718;52.200;21.052;2023-01-13T14:41:49;9.00;99.90
19172;DHT22;9718;52.200;21.052;2023-01-13T14:44:30;9.00;99.90
19172;DHT22;9718;52.200;21.052;2023-01-13T14:47:01;9.00;99.90
19172;DHT22;9718;52.200;21.052;2023-01-13T14:49:38;9.00;99.90
19172;DHT22;9718;52.200;21.052;2023-01-13T14:57:15;9.00;99.90
19172;DHT22;9718;52.200;21.052;2023-01-13T15:10:33;9.00;99.90
19172;DHT22;9718;52.200;21.052;2023-01-13T15:13:03;9.00;99.90
19172;DHT22;9718;52.200;21.052;2023-01-13T15:15:36;9.00;99.90
19172;DHT22;9718;52.200;21.052;2023-01-13T15:18:12;9.00;99.90
19172;DHT22;9718;52.200;21.052;2023-01-13T15:20:40;9.00;99.90
19172;DHT22;9718;52.200;21.052;2023-01-13T15:23:08;8.90;99.90
19172;DHT22;9718;52.200;21.052;2023-01-13T15:25:38;8.90;99.90
19172;DHT22;9718;52.200;21.052;2023-01-13T15:28:09;8.80;99.90
19172;DHT22;9718;52.200;21.052;2023-01-13T15:30:40;8.90;99.90
19172;DHT22;9718;52.200;21.052;2023-01-13T15:33:08;8.90;99.90
19172;DHT22;9718;52.200;21.052;2023-01-13T15:35:38;8.90;99.90
19172;DHT22;9718;52.200;21.052;2023-01-13T15:38:15;8.90;99.90
19172;DHT22;9718;52.200;21.052;2023-01-13T15:40:44;8.90;99.90
19172;DHT22;9718;52.200;21.052;2023-01-13T15:43:17;8.90;99.90
19172;DHT22;9718;52.200;21.052;2023-01-13T15:46:09;8.90;99.90
19172;DHT22;9718;52.200;21.052;2023-01-13T15:48:55;9.00;99.90
19172;DHT22;9718;52.200;21.052;2023-01-13T15:51:24;9.00;99.90
19172;DHT22;9718;52.200;21.052;2023-01-13T15:53:51;9.00;99.90
19172;DHT22;9718;52.200;21.052;2023-01-13T15:56:24;9.00;99.90
19172;DHT22;9718;52.200;21.052;2023-01-13T15:58:53;9.00;99.90
19172;DHT22;9718;52.200;21.052;2023-01-13T16:01:21;9.00;99.90
19172;DHT22;9718;52.200;21.052;2023-01-13T16:03:49;9.00;99.90
19172;DHT22;9718;52.200;21.052;2023-01-13T16:06:27;9.00;99.90
19172;DHT22;9718;52.200;21.052;2023-01-13T16:08:55;9.00;99.90
19172;DHT22;9718;52.200;21.052;2023-01-13T16:11:22;8.90;99.90
19172;DHT22;9718;52.200;21.052;2023-01-13T16:13:49;8.90;99.90
19172;DHT22;9718;52.200;21.052;2023-01-13T16:16:21;8.90;99.90
19172;DHT22;9718;52.200;21.052;2023-01-13T16:18:50;9.00;99.90
19172;DHT22;9718;52.200;21.052;2023-01-13T16:21:17;9.00;99.90
19172;DHT22;9718;52.200;21.052;2023-01-13T16:23:47;9.00;99.90
19172;DHT22;9718;52.200;21.052;2023-01-13T16:26:21;9.00;99.90
19172;DHT22;9718;52.200;21.052;2023-01-13T16:28:50;9.00;99.90
19172;DHT22;9718;52.200;21.052;2023-01-13T16:31:27;9.00;99.90
19172;DHT22;9718;52.200;21.052;2023-01-13T16:34:00;9.00;99.90
19172;DHT22;9718;52.200;21.052;2023-01-13T16:36:29;9.00;99.90
19172;DHT22;9718;52.200;21.052;2023-01-13T16:38:56;9.00;99.90
19172;DHT22;9718;52.200;21.052;2023-01-13T16:41:23;9.00;99.90
19172;DHT22;9718;52.200;21.052;2023-01-13T16:43:51;9.00;99.90
19172;DHT22;9718;52.200;21.052;2023-01-13T16:46:27;9.00;99.90
19172;DHT22;9718;52.200;21.052;2023-01-13T16:48:57;9.00;99.90
19172;DHT22;9718;52.200;21.052;2023-01-13T16:51:27;8.90;99.90
19172;DHT22;9718;52.200;21.052;2023-01-13T16:53:54;8.90;99.90
19172;DHT22;9718;52.200;21.052;2023-01-13T16:56:25;8.90;99.90
19172;DHT22;9718;52.200;21.052;2023-01-13T16:58:55;8.90;99.90
19172;DHT22;9718;52.200;21.052;2023-01-13T17:01:28;8.90;99.90
19172;DHT22;9718;52.200;21.052;2023-01-13T17:03:56;8.90;99.90
19172;DHT22;9718;52.200;21.052;2023-01-13T17:09:17;8.90;99.90
19172;DHT22;9718;52.200;21.052;2023-01-13T17:11:44;8.90;99.90
19172;DHT22;9718;52.200;21.052;2023-01-13T17:14:11;8.90;99.90
19172;DHT22;9718;52.200;21.052;2023-01-13T17:16:45;8.90;99.90
19172;DHT22;9718;52.200;21.052;2023-01-13T17:19:13;8.90;99.90
19172;DHT22;9718;52.200;21.052;2023-01-13T17:21:40;8.90;99.90
19172;DHT22;9718;52.200;21.052;2023-01-13T17:24:08;8.90;99.90
19172;DHT22;9718;52.200;21.052;2023-01-13T17:26:43;9.00;99.90
19172;DHT22;9718;52.200;21.052;2023-01-13T17:29:18;8.90;99.90
19172;DHT22;9718;52.200;21.052;2023-01-13T17:31:50;8.90;99.90
19172;DHT22;9718;52.200;21.052;2023-01-13T17:34:19;8.80;99.90
19172;DHT22;9718;52.200;21.052;2023-01-13T17:36:47;8.70;99.90
19172;DHT22;9718;52.200;21.052;2023-01-13T17:39:16;8.70;99.90
19172;DHT22;9718;52.200;21.052;2023-01-13T17:41:44;8.70;99.90
19172;DHT22;9718;52.200;21.052;2023-01-13T17:44:16;8.60;99.90
19172;DHT22;9718;52.200;21.052;2023-01-13T17:46:43;8.70;99.90
19172;DHT22;9718;52.200;21.052;2023-01-13T17:49:11;8.60;99.90
19172;DHT22;9718;52.200;21.052;2023-01-13T17:51:39;8.60;99.90
19172;DHT22;9718;52.200;21.052;2023-01-13T17:54:07;8.60;99.90
19172;DHT22;9718;52.200;21.052;2023-01-13T17:56:38;8.50;99.90
19172;DHT22;9718;52.200;21.052;2023-01-13T17:59:07;8.50;99.90
19172;DHT22;9718;52.200;21.052;2023-01-13T18:01:36;8.40;99.90
19172;DHT22;9718;52.200;21.052;2023-01-13T18:04:04;8.30;99.90
19172;DHT22;9718;52.200;21.052;2023-01-13T18:06:32;8.20;99.90
19172;DHT22;9718;52.200;21.052;2023-01-13T18:09:00;8.20;99.90
19172;DHT22;9718;52.200;21.052;2023-01-13T18:11:27;8.20;99.90
19172;DHT22;9718;52.200;21.052;2023-01-13T18:13:55;8.10;99.90
19172;DHT22;9718;52.200;21.052;2023-01-13T18:16:24;8.10;99.90
19172;DHT22;9718;52.200;21.052;2023-01-13T18:18:58;8.10;99.90
19172;DHT22;9718;52.200;21.052;2023-01-13T18:21:46;8.10;99.90
19172;DHT22;9718;52.200;21.052;2023-01-13T18:24:32;8.00;99.90
19172;DHT22;9718;52.200;21.052;2023-01-13T18:27:25;7.90;99.90
19172;DHT22;9718;52.200;21.052;2023-01-13T18:29:55;7.90;99.90
19172;DHT22;9718;52.200;21.052;2023-01-13T18:32:24;7.80;99.90
19172;DHT22;9718;52.200;21.052;2023-01-13T18:35:06;7.80;99.90
19172;DHT22;9718;52.200;21.052;2023-01-13T18:37:39;7.80;99.90
19172;DHT22;9718;52.200;21.052;2023-01-13T18:40:10;7.70;99.90
19172;DHT22;9718;52.200;21.052;2023-01-13T18:42:38;7.70;99.90
19172;DHT22;9718;52.200;21.052;2023-01-13T18:45:19;7.70;99.90
19172;DHT22;9718;52.200;21.052;2023-01-13T18:47:47;7.70;99.90
19172;DHT22;9718;52.200;21.052;2023-01-13T18:50:15;7.70;99.90
19172;DHT22;9718;52.200;21.052;2023-01-13T18:52:43;7.70;99.90
19172;DHT22;9718;52.200;21.052;2023-01-13T18:55:10;7.70;99.90
19172;DHT22;9718;52.200;21.052;2023-01-13T18:57:37;7.70;99.90